sensor_id;sensor_type;location;lat;lon;timestamp;P1;durP1;ratioP1;P2;durP2;ratioP2
37049;SDS011;22958;51.232;6.826;2023-04-24T00:00:55;1.43;;;0.80;;
37049;SDS011;22958;51.232;6.826;2023-04-24T00:03:25;1.85;;;1.00;;
37049;SDS011;22958;51.232;6.826;2023-04-24T00:08:18;2.85;;;1.10;;
37049;SDS011;22958;51.232;6.826;2023-04-24T00:10:44;3.33;;;1.10;;
37049;SDS011;22958;51.232;6.826;2023-04-24T00:13:10;4.60;;;1.13;;
37049;SDS011;22958;51.232;6.826;2023-04-24T00:15:35;2.80;;;1.00;;
37049;SDS011;22958;51.232;6.826;2023-04-24T00:18:01;2.73;;;1.30;;
37049;SDS011;22958;51.232;6.826;2023-04-24T00:20:27;1.80;;;1.00;;
37049;SDS011;22958;51.232;6.826;2023-04-24T00:22:57;1.90;;;1.23;;
37049;SDS011;22958;51.232;6.826;2023-04-24T00:25:23;4.90;;;1.27;;
37049;SDS011;22958;51.232;6.826;2023-04-24T00:27:48;2.70;;;1.40;;
37049;SDS011;22958;51.232;6.826;2023-04-24T00:30:14;2.50;;;1.43;;
37049;SDS011;22958;51.232;6.826;2023-04-24T00:32:39;3.87;;;1.40;;
37049;SDS011;22958;51.232;6.826;2023-04-24T00:35:05;3.70;;;1.30;;
37049;SDS011;22958;51.232;6.826;2023-04-24T00:37:31;4.18;;;1.70;;
37049;SDS011;22958;51.232;6.826;2023-04-24T00:39:57;4.70;;;1.50;;
37049;SDS011;22958;51.232;6.826;2023-04-24T00:42:23;2.97;;;1.30;;
37049;SDS011;22958;51.232;6.826;2023-04-24T00:44:49;2.30;;;0.90;;
37049;SDS011;22958;51.232;6.826;2023-04-24T00:47:15;2.72;;;1.08;;
37049;SDS011;22958;51.232;6.826;2023-04-24T00:49:41;7.63;;;1.97;;
37049;SDS011;22958;51.232;6.826;2023-04-24T00:52:07;4.70;;;1.70;;
37049;SDS011;22958;51.232;6.826;2023-04-24T00:54:34;4.70;;;1.70;;
37049;SDS011;22958;51.232;6.826;2023-04-24T00:57:00;2.83;;;1.63;;
37049;SDS011;22958;51.232;6.826;2023-04-24T01:01:52;3.70;;;1.60;;
37049;SDS011;22958;51.232;6.826;2023-04-24T01:04:18;2.53;;;1.50;;
37049;SDS011;22958;51.232;6.826;2023-04-24T01:06:44;4.67;;;2.00;;
37049;SDS011;22958;51.232;6.826;2023-04-24T01:09:10;6.05;;;1.90;;
37049;SDS011;22958;51.232;6.826;2023-04-24T01:11:37;4.13;;;2.40;;
37049;SDS011;22958;51.232;6.826;2023-04-24T01:14:02;5.97;;;2.58;;
37049;SDS011;22958;51.232;6.826;2023-04-24T01:16:28;4.07;;;2.30;;
37049;SDS011;22958;51.232;6.826;2023-04-24T01:18:54;5.47;;;2.70;;
37049;SDS011;22958;51.232;6.826;2023-04-24T01:21:19;5.83;;;3.07;;
37049;SDS011;22958;51.232;6.826;2023-04-24T01:23:48;14.52;;;3.60;;
37049;SDS011;22958;51.232;6.826;2023-04-24T01:26:16;8.43;;;3.87;;
37049;SDS011;22958;51.232;6.826;2023-04-24T01:28:42;8.85;;;4.57;;
37049;SDS011;22958;51.232;6.826;2023-04-24T01:31:08;18.73;;;4.73;;
37049;SDS011;22958;51.232;6.826;2023-04-24T01:33:33;12.43;;;5.17;;
37049;SDS011;22958;51.232;6.826;2023-04-24T01:35:59;11.47;;;5.67;;
37049;SDS011;22958;51.232;6.826;2023-04-24T01:38:25;14.43;;;5.63;;
37049;SDS011;22958;51.232;6.826;2023-04-24T01:40:50;14.17;;;6.63;;
37049;SDS011;22958;51.232;6.826;2023-04-24T01:43:16;9.73;;;6.13;;
37049;SDS011;22958;51.232;6.826;2023-04-24T01:45:42;14.00;;;6.55;;
37049;SDS011;22958;51.232;6.826;2023-04-24T01:48:08;20.93;;;7.37;;
37049;SDS011;22958;51.232;6.826;2023-04-24T01:50:33;16.07;;;7.30;;
37049;SDS011;22958;51.232;6.826;2023-04-24T01:52:59;18.63;;;8.27;;
37049;SDS011;22958;51.232;6.826;2023-04-24T01:55:25;15.60;;;7.80;;
37049;SDS011;22958;51.232;6.826;2023-04-24T01:57:52;13.23;;;7.90;;
37049;SDS011;22958;51.232;6.826;2023-04-24T02:00:20;17.95;;;7.38;;
37049;SDS011;22958;51.232;6.826;2023-04-24T02:02:45;15.90;;;8.40;;
37049;SDS011;22958;51.232;6.826;2023-04-24T02:05:11;15.93;;;8.20;;
37049;SDS011;22958;51.232;6.826;2023-04-24T02:07:36;20.90;;;8.93;;
37049;SDS011;22958;51.232;6.826;2023-04-24T02:10:02;17.83;;;8.13;;
37049;SDS011;22958;51.232;6.826;2023-04-24T02:12:29;44.70;;;8.82;;
37049;SDS011;22958;51.232;6.826;2023-04-24T02:14:54;14.93;;;7.50;;
37049;SDS011;22958;51.232;6.826;2023-04-24T02:17:20;15.13;;;8.17;;
37049;SDS011;22958;51.232;6.826;2023-04-24T02:19:45;18.07;;;9.57;;
37049;SDS011;22958;51.232;6.826;2023-04-24T02:22:11;17.47;;;7.80;;
37049;SDS011;22958;51.232;6.826;2023-04-24T02:24:37;18.97;;;7.93;;
37049;SDS011;22958;51.232;6.826;2023-04-24T02:27:03;17.17;;;9.70;;
37049;SDS011;22958;51.232;6.826;2023-04-24T02:29:29;18.77;;;7.87;;
37049;SDS011;22958;51.232;6.826;2023-04-24T02:31:54;16.40;;;9.13;;
37049;SDS011;22958;51.232;6.826;2023-04-24T02:34:20;22.97;;;9.67;;
37049;SDS011;22958;51.232;6.826;2023-04-24T02:36:46;16.00;;;9.05;;
37049;SDS011;22958;51.232;6.826;2023-04-24T02:39:11;19.93;;;9.47;;
37049;SDS011;22958;51.232;6.826;2023-04-24T02:41:38;25.00;;;9.32;;
37049;SDS011;22958;51.232;6.826;2023-04-24T02:44:03;21.43;;;9.60;;
37049;SDS011;22958;51.232;6.826;2023-04-24T02:46:29;19.67;;;9.30;;
37049;SDS011;22958;51.232;6.826;2023-04-24T02:48:55;22.35;;;10.32;;
37049;SDS011;22958;51.232;6.826;2023-04-24T02:51:20;26.23;;;11.33;;
37049;SDS011;22958;51.232;6.826;2023-04-24T02:53:46;20.80;;;10.23;;
37049;SDS011;22958;51.232;6.826;2023-04-24T02:56:11;19.40;;;11.17;;
37049;SDS011;22958;51.232;6.826;2023-04-24T02:58:37;21.45;;;10.52;;
37049;SDS011;22958;51.232;6.826;2023-04-24T03:01:03;19.17;;;10.17;;
37049;SDS011;22958;51.232;6.826;2023-04-24T03:03:29;18.37;;;10.13;;
37049;SDS011;22958;51.232;6.826;2023-04-24T03:05:55;24.73;;;11.40;;
37049;SDS011;22958;51.232;6.826;2023-04-24T03:08:20;20.43;;;10.90;;
37049;SDS011;22958;51.232;6.826;2023-04-24T03:10:46;26.00;;;11.33;;
37049;SDS011;22958;51.232;6.826;2023-04-24T03:13:11;25.37;;;11.70;;
37049;SDS011;22958;51.232;6.826;2023-04-24T03:15:37;22.53;;;10.73;;
37049;SDS011;22958;51.232;6.826;2023-04-24T03:18:02;25.47;;;11.20;;
37049;SDS011;22958;51.232;6.826;2023-04-24T03:20:28;23.17;;;10.77;;
37049;SDS011;22958;51.232;6.826;2023-04-24T03:22:53;26.63;;;10.23;;
37049;SDS011;22958;51.232;6.826;2023-04-24T03:25:19;21.20;;;10.87;;
37049;SDS011;22958;51.232;6.826;2023-04-24T03:27:44;19.40;;;9.87;;
37049;SDS011;22958;51.232;6.826;2023-04-24T03:30:11;23.90;;;11.10;;
37049;SDS011;22958;51.232;6.826;2023-04-24T03:32:36;18.83;;;10.47;;
37049;SDS011;22958;51.232;6.826;2023-04-24T03:35:04;22.35;;;10.85;;
37049;SDS011;22958;51.232;6.826;2023-04-24T03:37:31;32.13;;;12.18;;
37049;SDS011;22958;51.232;6.826;2023-04-24T03:39:56;21.00;;;10.30;;
37049;SDS011;22958;51.232;6.826;2023-04-24T03:42:22;23.77;;;10.10;;
37049;SDS011;22958;51.232;6.826;2023-04-24T03:44:47;20.57;;;10.83;;
37049;SDS011;22958;51.232;6.826;2023-04-24T03:47:13;24.70;;;11.93;;
37049;SDS011;22958;51.232;6.826;2023-04-24T03:49:38;24.23;;;11.13;;
37049;SDS011;22958;51.232;6.826;2023-04-24T03:52:04;21.97;;;11.27;;
37049;SDS011;22958;51.232;6.826;2023-04-24T03:54:29;22.07;;;11.47;;
37049;SDS011;22958;51.232;6.826;2023-04-24T03:56:55;21.50;;;10.77;;
37049;SDS011;22958;51.232;6.826;2023-04-24T03:59:20;23.67;;;11.60;;
37049;SDS011;22958;51.232;6.826;2023-04-24T04:01:46;22.57;;;10.90;;
37049;SDS011;22958;51.232;6.826;2023-04-24T04:04:11;19.17;;;11.10;;
37049;SDS011;22958;51.232;6.826;2023-04-24T04:06:37;23.67;;;11.83;;
37049;SDS011;22958;51.232;6.826;2023-04-24T04:09:02;25.57;;;10.60;;
37049;SDS011;22958;51.232;6.826;2023-04-24T04:11:28;24.10;;;10.37;;
37049;SDS011;22958;51.232;6.826;2023-04-24T04:13:54;24.38;;;11.45;;
37049;SDS011;22958;51.232;6.826;2023-04-24T04:16:21;23.73;;;10.23;;
37049;SDS011;22958;51.232;6.826;2023-04-24T04:18:47;23.47;;;10.77;;
37049;SDS011;22958;51.232;6.826;2023-04-24T04:21:13;22.07;;;11.17;;
37049;SDS011;22958;51.232;6.826;2023-04-24T04:23:38;27.30;;;11.67;;
37049;SDS011;22958;51.232;6.826;2023-04-24T04:26:05;21.00;;;9.60;;
37049;SDS011;22958;51.232;6.826;2023-04-24T04:28:30;26.57;;;11.30;;
37049;SDS011;22958;51.232;6.826;2023-04-24T04:30:56;23.43;;;10.67;;
37049;SDS011;22958;51.232;6.826;2023-04-24T04:33:22;20.00;;;10.10;;
37049;SDS011;22958;51.232;6.826;2023-04-24T04:35:51;16.80;;;10.45;;
37049;SDS011;22958;51.232;6.826;2023-04-24T04:38:17;23.67;;;10.45;;
37049;SDS011;22958;51.232;6.826;2023-04-24T04:40:43;18.63;;;9.60;;
37049;SDS011;22958;51.232;6.826;2023-04-24T04:43:09;21.33;;;10.73;;
37049;SDS011;22958;51.232;6.826;2023-04-24T04:45:35;21.42;;;10.07;;
37049;SDS011;22958;51.232;6.826;2023-04-24T04:48:06;26.48;;;10.57;;
37049;SDS011;22958;51.232;6.826;2023-04-24T04:50:33;16.15;;;9.85;;
37049;SDS011;22958;51.232;6.826;2023-04-24T04:52:59;21.90;;;10.77;;
37049;SDS011;22958;51.232;6.826;2023-04-24T04:55:25;20.60;;;10.17;;
37049;SDS011;22958;51.232;6.826;2023-04-24T04:57:51;20.33;;;11.90;;
37049;SDS011;22958;51.232;6.826;2023-04-24T05:00:16;22.40;;;12.47;;
37049;SDS011;22958;51.232;6.826;2023-04-24T05:02:42;23.80;;;13.87;;
37049;SDS011;22958;51.232;6.826;2023-04-24T05:05:08;22.23;;;12.73;;
37049;SDS011;22958;51.232;6.826;2023-04-24T05:07:34;25.37;;;13.70;;
37049;SDS011;22958;51.232;6.826;2023-04-24T05:09:59;27.13;;;13.33;;
37049;SDS011;22958;51.232;6.826;2023-04-24T05:12:25;24.70;;;13.33;;
37049;SDS011;22958;51.232;6.826;2023-04-24T05:14:50;18.07;;;11.67;;
37049;SDS011;22958;51.232;6.826;2023-04-24T05:17:16;26.70;;;11.83;;
37049;SDS011;22958;51.232;6.826;2023-04-24T05:19:42;19.73;;;10.53;;
37049;SDS011;22958;51.232;6.826;2023-04-24T05:22:07;19.93;;;10.37;;
37049;SDS011;22958;51.232;6.826;2023-04-24T05:27:00;18.55;;;10.55;;
37049;SDS011;22958;51.232;6.826;2023-04-24T05:31:52;27.85;;;11.45;;
37049;SDS011;22958;51.232;6.826;2023-04-24T05:34:18;22.47;;;11.90;;
37049;SDS011;22958;51.232;6.826;2023-04-24T05:36:43;19.13;;;12.67;;
37049;SDS011;22958;51.232;6.826;2023-04-24T05:39:09;21.37;;;10.77;;
37049;SDS011;22958;51.232;6.826;2023-04-24T05:41:35;20.53;;;11.03;;
37049;SDS011;22958;51.232;6.826;2023-04-24T05:44:00;27.67;;;11.23;;
37049;SDS011;22958;51.232;6.826;2023-04-24T05:46:26;18.83;;;10.90;;
37049;SDS011;22958;51.232;6.826;2023-04-24T05:48:51;21.50;;;10.30;;
37049;SDS011;22958;51.232;6.826;2023-04-24T05:51:17;22.33;;;11.13;;
37049;SDS011;22958;51.232;6.826;2023-04-24T05:53:42;17.93;;;10.40;;
37049;SDS011;22958;51.232;6.826;2023-04-24T05:56:08;19.30;;;10.33;;
37049;SDS011;22958;51.232;6.826;2023-04-24T05:58:33;20.00;;;11.33;;
37049;SDS011;22958;51.232;6.826;2023-04-24T06:00:59;18.87;;;10.17;;
37049;SDS011;22958;51.232;6.826;2023-04-24T06:03:26;25.38;;;10.75;;
37049;SDS011;22958;51.232;6.826;2023-04-24T06:05:52;22.50;;;10.95;;
37049;SDS011;22958;51.232;6.826;2023-04-24T06:08:18;18.70;;;9.30;;
37049;SDS011;22958;51.232;6.826;2023-04-24T06:10:43;25.00;;;11.90;;
37049;SDS011;22958;51.232;6.826;2023-04-24T06:13:09;23.67;;;11.50;;
37049;SDS011;22958;51.232;6.826;2023-04-24T06:15:35;27.57;;;12.43;;
37049;SDS011;22958;51.232;6.826;2023-04-24T06:18:00;23.80;;;11.47;;
37049;SDS011;22958;51.232;6.826;2023-04-24T06:20:26;21.13;;;11.33;;
37049;SDS011;22958;51.232;6.826;2023-04-24T06:22:51;19.73;;;10.97;;
37049;SDS011;22958;51.232;6.826;2023-04-24T06:25:17;16.63;;;10.07;;
37049;SDS011;22958;51.232;6.826;2023-04-24T06:27:43;20.83;;;10.70;;
37049;SDS011;22958;51.232;6.826;2023-04-24T06:30:08;18.30;;;10.77;;
37049;SDS011;22958;51.232;6.826;2023-04-24T06:32:34;18.73;;;10.00;;
37049;SDS011;22958;51.232;6.826;2023-04-24T06:35:00;17.17;;;9.23;;
37049;SDS011;22958;51.232;6.826;2023-04-24T06:37:25;17.03;;;9.40;;
37049;SDS011;22958;51.232;6.826;2023-04-24T06:39:51;21.37;;;9.67;;
37049;SDS011;22958;51.232;6.826;2023-04-24T06:42:16;23.93;;;8.13;;
37049;SDS011;22958;51.232;6.826;2023-04-24T06:44:42;15.83;;;8.23;;
37049;SDS011;22958;51.232;6.826;2023-04-24T06:47:08;14.30;;;8.37;;
37049;SDS011;22958;51.232;6.826;2023-04-24T06:49:35;14.85;;;8.80;;
37049;SDS011;22958;51.232;6.826;2023-04-24T06:52:01;14.30;;;8.13;;
37049;SDS011;22958;51.232;6.826;2023-04-24T06:54:27;16.80;;;7.67;;
37049;SDS011;22958;51.232;6.826;2023-04-24T06:56:54;23.83;;;8.57;;
37049;SDS011;22958;51.232;6.826;2023-04-24T06:59:20;16.95;;;7.95;;
37049;SDS011;22958;51.232;6.826;2023-04-24T07:01:46;12.37;;;7.60;;
37049;SDS011;22958;51.232;6.826;2023-04-24T07:04:11;22.57;;;8.57;;
37049;SDS011;22958;51.232;6.826;2023-04-24T07:06:37;17.73;;;8.48;;
37049;SDS011;22958;51.232;6.826;2023-04-24T07:09:04;20.08;;;9.20;;
37049;SDS011;22958;51.232;6.826;2023-04-24T07:11:29;19.97;;;7.93;;
37049;SDS011;22958;51.232;6.826;2023-04-24T07:13:55;13.27;;;6.63;;
37049;SDS011;22958;51.232;6.826;2023-04-24T07:16:21;11.53;;;6.37;;
37049;SDS011;22958;51.232;6.826;2023-04-24T07:18:46;19.57;;;7.47;;
37049;SDS011;22958;51.232;6.826;2023-04-24T07:21:12;14.23;;;5.97;;
37049;SDS011;22958;51.232;6.826;2023-04-24T07:23:38;15.13;;;6.17;;
37049;SDS011;22958;51.232;6.826;2023-04-24T07:26:03;10.87;;;5.60;;
37049;SDS011;22958;51.232;6.826;2023-04-24T07:28:29;10.33;;;4.87;;
37049;SDS011;22958;51.232;6.826;2023-04-24T07:30:57;9.07;;;4.60;;
37049;SDS011;22958;51.232;6.826;2023-04-24T07:33:24;7.80;;;4.38;;
37049;SDS011;22958;51.232;6.826;2023-04-24T07:35:50;10.32;;;4.05;;
37049;SDS011;22958;51.232;6.826;2023-04-24T07:38:16;8.23;;;3.93;;
37049;SDS011;22958;51.232;6.826;2023-04-24T07:40:45;7.82;;;3.60;;
37049;SDS011;22958;51.232;6.826;2023-04-24T07:43:10;7.80;;;2.30;;
37049;SDS011;22958;51.232;6.826;2023-04-24T07:45:36;9.20;;;2.63;;
37049;SDS011;22958;51.232;6.826;2023-04-24T07:48:02;4.60;;;2.75;;
37049;SDS011;22958;51.232;6.826;2023-04-24T07:50:28;4.73;;;1.83;;
37049;SDS011;22958;51.232;6.826;2023-04-24T07:52:53;2.00;;;1.13;;
37049;SDS011;22958;51.232;6.826;2023-04-24T07:55:19;3.60;;;1.37;;
37049;SDS011;22958;51.232;6.826;2023-04-24T07:57:45;3.17;;;0.97;;
37049;SDS011;22958;51.232;6.826;2023-04-24T08:00:10;2.17;;;0.93;;
37049;SDS011;22958;51.232;6.826;2023-04-24T08:02:36;5.93;;;0.90;;
37049;SDS011;22958;51.232;6.826;2023-04-24T08:05:02;3.03;;;1.00;;
37049;SDS011;22958;51.232;6.826;2023-04-24T08:07:28;2.97;;;1.17;;
37049;SDS011;22958;51.232;6.826;2023-04-24T08:09:54;3.20;;;0.87;;
37049;SDS011;22958;51.232;6.826;2023-04-24T08:12:19;7.30;;;0.87;;
37049;SDS011;22958;51.232;6.826;2023-04-24T08:14:45;2.87;;;0.90;;
37049;SDS011;22958;51.232;6.826;2023-04-24T08:17:10;3.50;;;1.33;;
37049;SDS011;22958;51.232;6.826;2023-04-24T08:19:36;4.90;;;1.60;;
37049;SDS011;22958;51.232;6.826;2023-04-24T08:22:01;3.50;;;1.50;;
37049;SDS011;22958;51.232;6.826;2023-04-24T08:24:29;6.28;;;1.60;;
37049;SDS011;22958;51.232;6.826;2023-04-24T08:26:54;5.43;;;2.53;;
37049;SDS011;22958;51.232;6.826;2023-04-24T08:29:21;6.13;;;2.88;;
37049;SDS011;22958;51.232;6.826;2023-04-24T08:31:47;5.43;;;2.83;;
37049;SDS011;22958;51.232;6.826;2023-04-24T08:34:12;6.73;;;2.73;;
37049;SDS011;22958;51.232;6.826;2023-04-24T08:36:38;17.17;;;4.10;;
37049;SDS011;22958;51.232;6.826;2023-04-24T08:39:05;8.05;;;3.20;;
37049;SDS011;22958;51.232;6.826;2023-04-24T08:41:31;5.83;;;2.73;;
37049;SDS011;22958;51.232;6.826;2023-04-24T08:43:59;5.32;;;2.63;;
37049;SDS011;22958;51.232;6.826;2023-04-24T08:46:26;6.53;;;3.17;;
37049;SDS011;22958;51.232;6.826;2023-04-24T08:48:52;8.30;;;3.20;;
37049;SDS011;22958;51.232;6.826;2023-04-24T08:51:18;7.73;;;2.83;;
37049;SDS011;22958;51.232;6.826;2023-04-24T08:53:45;8.38;;;3.28;;
37049;SDS011;22958;51.232;6.826;2023-04-24T08:56:11;7.17;;;3.80;;
37049;SDS011;22958;51.232;6.826;2023-04-24T08:58:37;6.68;;;3.97;;
37049;SDS011;22958;51.232;6.826;2023-04-24T09:01:04;8.07;;;5.13;;
37049;SDS011;22958;51.232;6.826;2023-04-24T09:03:30;14.17;;;5.37;;
37049;SDS011;22958;51.232;6.826;2023-04-24T09:05:57;12.40;;;6.40;;
37049;SDS011;22958;51.232;6.826;2023-04-24T09:08:25;13.73;;;5.80;;
37049;SDS011;22958;51.232;6.826;2023-04-24T09:10:52;14.45;;;5.30;;
37049;SDS011;22958;51.232;6.826;2023-04-24T09:13:18;9.50;;;4.27;;
37049;SDS011;22958;51.232;6.826;2023-04-24T09:15:45;6.22;;;3.80;;
37049;SDS011;22958;51.232;6.826;2023-04-24T09:18:10;7.13;;;3.93;;
37049;SDS011;22958;51.232;6.826;2023-04-24T09:20:56;10.63;;;4.87;;
37049;SDS011;22958;51.232;6.826;2023-04-24T09:23:22;14.27;;;4.95;;
37049;SDS011;22958;51.232;6.826;2023-04-24T09:25:48;10.60;;;5.47;;
37049;SDS011;22958;51.232;6.826;2023-04-24T09:28:22;12.35;;;6.43;;
37049;SDS011;22958;51.232;6.826;2023-04-24T09:31:07;13.73;;;6.20;;
37049;SDS011;22958;51.232;6.826;2023-04-24T09:33:35;14.13;;;7.28;;
37049;SDS011;22958;51.232;6.826;2023-04-24T09:36:01;13.93;;;7.32;;
37049;SDS011;22958;51.232;6.826;2023-04-24T09:38:45;22.35;;;8.20;;
37049;SDS011;22958;51.232;6.826;2023-04-24T09:41:13;17.52;;;7.30;;
37049;SDS011;22958;51.232;6.826;2023-04-24T09:43:39;14.10;;;7.15;;
37049;SDS011;22958;51.232;6.826;2023-04-24T09:46:07;18.30;;;8.37;;
37049;SDS011;22958;51.232;6.826;2023-04-24T09:48:36;18.23;;;8.43;;
37049;SDS011;22958;51.232;6.826;2023-04-24T09:51:03;16.38;;;7.40;;
37049;SDS011;22958;51.232;6.826;2023-04-24T09:53:32;20.35;;;7.75;;
37049;SDS011;22958;51.232;6.826;2023-04-24T09:56:07;27.03;;;9.07;;
37049;SDS011;22958;51.232;6.826;2023-04-24T09:58:35;21.50;;;8.00;;
37049;SDS011;22958;51.232;6.826;2023-04-24T10:01:01;23.92;;;8.57;;
37049;SDS011;22958;51.232;6.826;2023-04-24T10:03:29;23.00;;;8.57;;
37049;SDS011;22958;51.232;6.826;2023-04-24T10:05:58;23.70;;;9.60;;
37049;SDS011;22958;51.232;6.826;2023-04-24T10:08:24;22.33;;;10.10;;
37049;SDS011;22958;51.232;6.826;2023-04-24T10:10:51;25.83;;;10.07;;
37049;SDS011;22958;51.232;6.826;2023-04-24T10:13:17;24.42;;;10.75;;
37049;SDS011;22958;51.232;6.826;2023-04-24T10:15:43;29.40;;;10.67;;
37049;SDS011;22958;51.232;6.826;2023-04-24T10:18:09;24.58;;;10.23;;
37049;SDS011;22958;51.232;6.826;2023-04-24T10:20:36;25.33;;;11.55;;
37049;SDS011;22958;51.232;6.826;2023-04-24T10:23:03;25.00;;;11.40;;
37049;SDS011;22958;51.232;6.826;2023-04-24T10:25:30;24.73;;;11.37;;
37049;SDS011;22958;51.232;6.826;2023-04-24T10:27:57;28.17;;;11.50;;
37049;SDS011;22958;51.232;6.826;2023-04-24T10:30:24;27.67;;;12.20;;
37049;SDS011;22958;51.232;6.826;2023-04-24T10:32:52;31.88;;;12.13;;
37049;SDS011;22958;51.232;6.826;2023-04-24T10:35:17;34.83;;;11.97;;
37049;SDS011;22958;51.232;6.826;2023-04-24T10:40:11;29.77;;;11.77;;
37049;SDS011;22958;51.232;6.826;2023-04-24T10:42:42;37.75;;;13.88;;
37049;SDS011;22958;51.232;6.826;2023-04-24T10:45:15;35.77;;;13.63;;
37049;SDS011;22958;51.232;6.826;2023-04-24T10:47:59;29.27;;;12.05;;
37049;SDS011;22958;51.232;6.826;2023-04-24T10:50:48;29.33;;;12.10;;
37049;SDS011;22958;51.232;6.826;2023-04-24T10:53:18;33.10;;;13.75;;
37049;SDS011;22958;51.232;6.826;2023-04-24T10:55:46;42.55;;;14.52;;
37049;SDS011;22958;51.232;6.826;2023-04-24T10:58:37;28.67;;;12.45;;
37049;SDS011;22958;51.232;6.826;2023-04-24T11:01:09;36.92;;;12.98;;
37049;SDS011;22958;51.232;6.826;2023-04-24T11:03:55;36.90;;;12.18;;
37049;SDS011;22958;51.232;6.826;2023-04-24T11:11:33;20.98;;;8.20;;
37049;SDS011;22958;51.232;6.826;2023-04-24T11:14:01;24.38;;;7.30;;
37049;SDS011;22958;51.232;6.826;2023-04-24T11:16:29;28.30;;;7.85;;
37049;SDS011;22958;51.232;6.826;2023-04-24T11:19:07;27.13;;;6.50;;
37049;SDS011;22958;51.232;6.826;2023-04-24T11:21:54;26.15;;;7.07;;
37049;SDS011;22958;51.232;6.826;2023-04-24T11:24:29;28.35;;;6.25;;
37049;SDS011;22958;51.232;6.826;2023-04-24T11:27:12;19.23;;;5.95;;
37049;SDS011;22958;51.232;6.826;2023-04-24T11:35:02;25.75;;;6.03;;
37049;SDS011;22958;51.232;6.826;2023-04-24T11:37:40;25.35;;;6.88;;
37049;SDS011;22958;51.232;6.826;2023-04-24T11:40:08;20.85;;;5.80;;
37049;SDS011;22958;51.232;6.826;2023-04-24T11:42:44;26.42;;;7.40;;
37049;SDS011;22958;51.232;6.826;2023-04-24T11:45:14;23.60;;;5.68;;
37049;SDS011;22958;51.232;6.826;2023-04-24T11:47:48;32.63;;;5.97;;
37049;SDS011;22958;51.232;6.826;2023-04-24T11:50:15;22.83;;;4.97;;
37049;SDS011;22958;51.232;6.826;2023-04-24T11:52:43;23.13;;;5.82;;
37049;SDS011;22958;51.232;6.826;2023-04-24T11:57:38;19.25;;;7.00;;
37049;SDS011;22958;51.232;6.826;2023-04-24T12:00:09;36.85;;;6.85;;
37049;SDS011;22958;51.232;6.826;2023-04-24T12:02:40;27.15;;;5.80;;
37049;SDS011;22958;51.232;6.826;2023-04-24T12:05:06;19.77;;;5.20;;
37049;SDS011;22958;51.232;6.826;2023-04-24T12:07:31;22.70;;;5.13;;
37049;SDS011;22958;51.232;6.826;2023-04-24T12:10:08;16.10;;;4.97;;
37049;SDS011;22958;51.232;6.826;2023-04-24T12:12:34;15.05;;;4.97;;
37049;SDS011;22958;51.232;6.826;2023-04-24T12:15:00;17.07;;;4.70;;
37049;SDS011;22958;51.232;6.826;2023-04-24T12:17:31;16.45;;;4.60;;
37049;SDS011;22958;51.232;6.826;2023-04-24T12:22:25;19.10;;;4.28;;
37049;SDS011;22958;51.232;6.826;2023-04-24T12:24:57;23.03;;;4.50;;
37049;SDS011;22958;51.232;6.826;2023-04-24T12:27:29;17.23;;;4.72;;
37049;SDS011;22958;51.232;6.826;2023-04-24T12:29:57;14.90;;;3.88;;
37049;SDS011;22958;51.232;6.826;2023-04-24T12:34:50;15.52;;;3.90;;
37049;SDS011;22958;51.232;6.826;2023-04-24T12:37:16;13.50;;;3.22;;
37049;SDS011;22958;51.232;6.826;2023-04-24T12:39:58;17.92;;;2.80;;
37049;SDS011;22958;51.232;6.826;2023-04-24T12:42:31;10.48;;;2.65;;
37049;SDS011;22958;51.232;6.826;2023-04-24T12:45:04;17.35;;;3.05;;
37049;SDS011;22958;51.232;6.826;2023-04-24T12:47:33;21.60;;;2.80;;
37049;SDS011;22958;51.232;6.826;2023-04-24T12:49:59;7.05;;;2.08;;
37049;SDS011;22958;51.232;6.826;2023-04-24T12:52:26;10.38;;;1.95;;
37049;SDS011;22958;51.232;6.826;2023-04-24T12:54:53;6.32;;;1.85;;
37049;SDS011;22958;51.232;6.826;2023-04-24T12:57:20;12.18;;;2.15;;
37049;SDS011;22958;51.232;6.826;2023-04-24T12:59:46;10.77;;;1.75;;
37049;SDS011;22958;51.232;6.826;2023-04-24T13:02:11;15.83;;;2.60;;
37049;SDS011;22958;51.232;6.826;2023-04-24T13:04:37;12.17;;;2.23;;
37049;SDS011;22958;51.232;6.826;2023-04-24T13:07:03;12.03;;;2.10;;
37049;SDS011;22958;51.232;6.826;2023-04-24T13:09:28;6.77;;;1.50;;
37049;SDS011;22958;51.232;6.826;2023-04-24T13:11:54;8.45;;;1.85;;
37049;SDS011;22958;51.232;6.826;2023-04-24T13:14:21;6.45;;;1.60;;
37049;SDS011;22958;51.232;6.826;2023-04-24T13:16:47;7.90;;;1.80;;
37049;SDS011;22958;51.232;6.826;2023-04-24T13:19:13;7.10;;;1.53;;
37049;SDS011;22958;51.232;6.826;2023-04-24T13:21:38;6.67;;;1.80;;
37049;SDS011;22958;51.232;6.826;2023-04-24T13:24:04;13.03;;;1.80;;
37049;SDS011;22958;51.232;6.826;2023-04-24T13:26:30;4.80;;;1.40;;
37049;SDS011;22958;51.232;6.826;2023-04-24T13:28:56;8.83;;;1.40;;
37049;SDS011;22958;51.232;6.826;2023-04-24T13:31:21;4.10;;;1.40;;
37049;SDS011;22958;51.232;6.826;2023-04-24T13:33:47;4.53;;;1.40;;
37049;SDS011;22958;51.232;6.826;2023-04-24T13:36:13;7.50;;;1.20;;
37049;SDS011;22958;51.232;6.826;2023-04-24T13:38:38;8.23;;;1.37;;
37049;SDS011;22958;51.232;6.826;2023-04-24T13:41:04;4.60;;;1.40;;
37049;SDS011;22958;51.232;6.826;2023-04-24T13:43:29;7.57;;;1.40;;
37049;SDS011;22958;51.232;6.826;2023-04-24T13:45:55;6.70;;;1.30;;
37049;SDS011;22958;51.232;6.826;2023-04-24T13:48:20;2.87;;;1.20;;
37049;SDS011;22958;51.232;6.826;2023-04-24T13:50:46;5.77;;;1.87;;
37049;SDS011;22958;51.232;6.826;2023-04-24T13:55:38;11.32;;;1.80;;
37049;SDS011;22958;51.232;6.826;2023-04-24T13:58:04;8.43;;;1.67;;
37049;SDS011;22958;51.232;6.826;2023-04-24T14:00:30;9.23;;;1.80;;
37049;SDS011;22958;51.232;6.826;2023-04-24T14:02:56;10.82;;;1.83;;
37049;SDS011;22958;51.232;6.826;2023-04-24T14:05:21;9.37;;;1.70;;
37049;SDS011;22958;51.232;6.826;2023-04-24T14:07:47;6.50;;;1.93;;
37049;SDS011;22958;51.232;6.826;2023-04-24T14:10:12;12.67;;;2.03;;
37049;SDS011;22958;51.232;6.826;2023-04-24T14:12:38;5.27;;;1.60;;
37049;SDS011;22958;51.232;6.826;2023-04-24T14:15:04;7.57;;;1.60;;
37049;SDS011;22958;51.232;6.826;2023-04-24T14:17:30;11.45;;;1.50;;
37049;SDS011;22958;51.232;6.826;2023-04-24T14:19:56;5.00;;;1.10;;
37049;SDS011;22958;51.232;6.826;2023-04-24T14:22:21;9.77;;;1.40;;
37049;SDS011;22958;51.232;6.826;2023-04-24T14:24:47;4.03;;;1.27;;
37049;SDS011;22958;51.232;6.826;2023-04-24T14:27:13;7.70;;;1.37;;
37049;SDS011;22958;51.232;6.826;2023-04-24T14:29:38;9.30;;;2.23;;
37049;SDS011;22958;51.232;6.826;2023-04-24T14:32:04;12.27;;;1.93;;
37049;SDS011;22958;51.232;6.826;2023-04-24T14:34:30;3.80;;;1.50;;
37049;SDS011;22958;51.232;6.826;2023-04-24T14:36:55;9.47;;;1.63;;
37049;SDS011;22958;51.232;6.826;2023-04-24T14:39:21;4.70;;;1.43;;
37049;SDS011;22958;51.232;6.826;2023-04-24T14:41:46;7.33;;;1.50;;
37049;SDS011;22958;51.232;6.826;2023-04-24T14:44:12;8.70;;;1.83;;
37049;SDS011;22958;51.232;6.826;2023-04-24T14:46:37;5.40;;;1.63;;
37049;SDS011;22958;51.232;6.826;2023-04-24T14:49:03;5.07;;;1.23;;
37049;SDS011;22958;51.232;6.826;2023-04-24T14:51:29;7.17;;;1.23;;
37049;SDS011;22958;51.232;6.826;2023-04-24T14:53:55;6.22;;;1.33;;
37049;SDS011;22958;51.232;6.826;2023-04-24T14:56:21;6.23;;;1.67;;
37049;SDS011;22958;51.232;6.826;2023-04-24T14:58:48;5.22;;;1.10;;
37049;SDS011;22958;51.232;6.826;2023-04-24T15:01:13;6.00;;;1.70;;
37049;SDS011;22958;51.232;6.826;2023-04-24T15:03:39;6.43;;;1.90;;
37049;SDS011;22958;51.232;6.826;2023-04-24T15:06:05;12.23;;;1.63;;